EVENT Log Atlantis 013

January 18-31 2006

% 1=ctd 2=balloon 3=bobber 4=drifter 5=asis            
% GMT lat latdeg lon londeg event incrment comment who activity
%                    
20060118 1730 41 31.56 -70 40.38 0 0 % watch depart whoi
20060119 1453 39 07.31 -70 08.17 0 0 % ms start ctd 999 test station
20060119 1455 39 07.3086 -70 08.1726 2 2 % je launch balloon, 3 tries
20060119 1630 39 06.17 -70 08.05 0 0 % tj end ctd 999
20060120 0008 38 09.23 -69 49.7 2 3 % je launch balloon 3
20060120 0930 36 49.536 -69 24.88 1 1 % lt start ctd 01
20060120 1046 36 49.69 -69 24.57 0 0 % lt end ctd 01
20060120 1211 36 39.60 -69 23.187 1 2 % lt start ctd 02
20060120 1330 36 39.52 -69 23.11 2 4 % jt launch balloon, nice Wx
20060120 1407 36 39.54 -69 23.06 0 0 % tj end ctd 02
20060120 1425 36 39.53 -69 23.03 3 1 % jl launch bobber sn2625
20060120 1426 36 39.53 -69 23.03 4 1 % rl launch drifter 54421
20060120 1939 37 31.063 -69 30.48 5 1 % jt launch ASIS/FILIS
20060120 2039 37 32.82 -69 26.63 1 3 % tj start ctd 03
200601202 2201 37 33.5 -69 24.3 0 0 % sl end ctd 03
20060120 2204 37 33.5 -69 24.3 4 2 % rl launch drifter 54424, asis in sight
20060120 2205 37 33.5 -69 24.3 4 3 % rl launch drifter 55128, asis in sight
20060121 0020 37 23.84 -69 25.44 2 5 % je launch balloon, 1st x'd, 2nd good
20060121 0303 36 59.43 -69 26.55 1 4 % sl start ctd 04
20060121 0420 36 59.44 -69 26.53 0 0 % sl end ctd 04
20060121 0543 37 09.37 -69 28.23 1 5 % lt start ctd 05
20060121 0702 37 09.98 -69 26.81 0 0 % lt end ctd 05
20060121 0815 37 19.19 -69 29.81 1 6 % lt start ctd 06
20060121 0940 37 20.057 -69 28.2393 0 0 % lt end ctd 06
20060121 1132 37 39.24 -69 33.24 1 7 % eb start ctd 07
20060121 1222 37 40.664 -69 31.746 2 6 % sf/je/jt/jd balloon 06 mid-transect sounding,not archived
20060121 1257 37 41.684 -69 30.328 0 0 % lt end ctd 07
20060121 1403 37 49.26 -69 34.95 1 8 % tj start ctd 08
20060121 1532 37 52.28 -69 31.23 0 0 % tj end ctd 08
20060121 1640 37 59.03 -69 36.87 1 9 % tj start ctd 09
20060121 1730 38 00.46 -69 34.75 2 7 % je launch balloon 07, replaces #6
20060121 1804 38 00.46 -69 34.75 0 0 % tj end ctd 09
20060121 1805 38 00.46 -69 34.74 4 4 % rl deploy drifter 54420, N edge GS
20060121 1805 38 00.46 -69 34.74 4 5 % rl deploy drifter 55149, N edge GS
20060121 1910 38 08.97 -69 38.59 1 10 % tj start ctd 10
20060121 2029 38 09.96 -69 38.14 0 0 % tj end ctd 10
20060121 2133 38 18.932 -69 40.36 1 11 % sl start ctd 11
20060121 2237 38 18.90 -69 40.18 0 0 % sl end sta 11
20060121 2345 38 28.77 -69 42.01 1 12 % sl start ctd 12
20060122 0000 38 28.71 -69 41.88 2 8 % cm launch balloon 08, rainy
20060122 0143 38 28.66 -69 41.53 0 0 % sl end sta 12
20060122 0630 37 54.23 -69 04.64 2 9 % df launch balloon 9, windy & cooling,mid return
20060122 0632 37 53.04 -69 05.79 1 13 % lt start ctd 13
20060122 0756 37 54.89 -69 03.70 0 0 % lt end ctd 13
20060122 1240 37 17.13 -68 30.14 1 14 % lt start ctd 14
20060122 1245 37 17.10 -68 30.10 2 10 % jt/sf launch balloon 10, begin transect
20060122 1400 37 17.7 -68 29.5 0 0 % tj end ctd 14
20060122 1408 37 17.86 -68 29.41 3 2 % jl deploy bobber 2, sn2525
20060122 1511 37 23.43 -68 21.10 1 15 % tj start ctd 15
20060122 1633 37 24.41 -68 20.79 0 0 % tj end ctd 15
20060122 1736 37 29.79 -68 12.07 1 16 % tj start ctd 16
20060122 1859 37 30.39 -68 11.42 0 0 % tj end ctd 16
20060122 1903 37 31.068 -68 11.38 3 3 % jl deploy bobber 3, sn2374
20060122 1959 37 36.13 -68 02.89 1 17 % tj start ctd 17
20060122 2111 37 36.19 -68 02.39 0 0 % sl end ctd 17
20060122 2200 37 42.12 -67 54.02 1 18 % sl start ctd 18
20060122 2210 37 42.12 -67 54.02 2 11 % je launch balloon 11
20060123 0000 37 47.66 -67 45.14 0 0 % sl end ctd 18
20060123 0113 37 48.62 -67 44.21 1 19 % sl start ctd 19
20060123 0225 37 47.44 -67 39.94 0 0 % sl end ctd 19
20060123 0306 37 55.22 -67 35.07 1 20 % sl start ctd 20
20060123 0419 37 53.51 -67 31.19 0 0 % sl end ctd 20
20060123 0536 38 01.45 -67 25.64 1 21 % lt start ctd 21
20060123 0705 37 59.46 -67 21.33 0 0 % lt end ctd 21
20060123 0819 38 07.88 -67 16.87 1 22 % lt start ctd 22
20060123 0935 38 08.14 -67 16.28 0 0 % lt end ctd 22
20060123 1041 38 14.43 -67 07.85 1 23 % lt start ctd 23
20060123 1045 38 14.40 -67 08.00 2 12 % jt launch balloon 12
20060123 1203 38 15.01 -67 07.31 0 0 % lt end ctd 23
20060123 1700 37 24.6 -66 41.20 0 0 % sci close encounter with ASIS
20060123 1744 37 24.62 -66 41.99 1 24 % tj start ctd 24
20060123 1800 37 24.40 -66 39.3 2 14 % je lost balloon 13, 14 ok
20060123 1906 37 24.32 -66 36.46 0 0 % tj end ctd 24
20060124 0215 36 48.86 -65 58.67 2 15 % je launch balloon 15 from fantail
20060124 0248 36 46.84 -65 58.66 3 4 % jl launch bobber #4 sn2384 - sinker
20060124 0124 36 46.91 -65 58.80 1 25 % sl start ctd 25
20060124 0239 36 46.88 -65 58.66 0 0 % sl end ctd 25
20060124 0520 36 55.28 -65 58.08 3 5 % jl bobber #5 sn2373
20060124 0357 36 56.34 -65 58.59 1 26 % sl start ctd 26
20060124 0512 36 55.36 -65 58.07 0 0 % lt end ctd 26
20060124 0642 37 05.72 -65 58.31 1 27 % lt start ctd 27
20060124 0758 37 04.62 -65 57.90 0 0 % lt end ctd 27
20060124 0801 37 04.55 -65 58.00 3 6 % jl bobber #6 sn2529 - big waves
20060124 0927 37 15.25 -65 58.24 1 28 % lt start ctd 28
20060124 1051 37 14.67 -65 56.52 0 0 % lt end ctd 28
20060124 1208 37 24.81 -65 57.86 1 29 % lt start ctd 29
20060124 1215 37 24.81 -65 57.86 2 16 % jt balloon 16, 1st ROV van launch - brilliant
20060124 1318 37 25.04 -65 55.86 0 0 % tj end ctd 29
20060124 1433 37 34.19 -65 57.83 1 30 % tj start ctd 30
20060124 1552 37 34.64 -65 53.14 0 0 % tj end ctd 30
20060124 1707 37 43.76 -65 57.35 1 31 % tj start ctd 31
20060124 1837 37 43.48 -65 52.80 0 0 % tj end ctd 31
20060124 1954 37 52.9746 -65 57.468 1 32 % th start ctd 32
20060124 2119 37 53.28 -65 56.00 0 0 % sl end ctd 32
20060124 2214 38 02.25 -65 56.36 1 33 % sl start ctd 33
20060124 2230 38 02.25 -65 56.36 2 17 % je launch balloon 17
20060125 0025 37 58.114 -65 47.822 0 0 % sl end ctd 33
20060125 0430 37 37.98 -65 01.53 2 18 % jt launch balloon 18 from fantail, calm
20060125 0417 37 37.78 -65 02.00 1 34 % sl start ctd 34
20060125 0531 37 39.17 -64 58.85 0 0 % lt end ctd 34
20060125 0532 37 39.30 -64 58.60 4 6 % rl drifter #6 54422
20060125 1029 37 12.93 -64 06.85 1 35 % lt start ctd 35
20060125 1100 37 12.93 -64 06.85 2 19 % je/fb launch balloon 19
20060125 1222 37 12.66 -64 07.14 0 0 % lt end ctd 35
20060125 1226 37 12.60 -64 07.30 3 7 % df launch bobber #7
20060125 1228 37 12.6 -64 07.30 4 7 % rl launch drifter #7 55151
20060125 1343 37 21.80 -64 14.89 1 36 % tj start ctd 36
20060125 1503 37 21.70 -64 14.93 0 0 % tj end ctd 36
20060125 1509 37 21.65 -64 15.00 3 8 % df deploy bobber #8
20060125 1640 37 30.53 -64 22.83 1 37 % tj start ctd 37
20060125 1725 37 30.72 -64 22.28 2 20 % je launch balloon 20 from fantail, 30 kt winds
20060125 1803 37 30.45 -64 22.30 0 0 % tj end ctd 37
20060125 1957 37 39.061 -64 30.777 1 38 % tj start ctd 38
20060125 2209 37 42.22 -64 33.65 0 0 % sl end ctd 38
20060125 2124 37 39.10 -64 30.678 3 9 % df deploy bobber #9
20060125 2353 37 48.35 -64 38.24 2 21 % je launch balloon 21 fron fantail, 25kt winds
20060126 0040 37 49.11 -64 37.06 2 22 % wo launch balloon 22, 2nd launch at this station
20060126 0041 37 48.16 -64 38.66 1 39 % sl start ctd 39
20060126 0147 37 49.23 -64 36.78 0 0 % sl end ctd 39
20060126 0313 37 56.70 -64 46.90 1 40 % sl start ctd 40
20060126 0509 38 01.67 -64 43.37 0 0 % sl end ctd 40
20060126 0700 38 06.30 -64 54.36 2 23 % cm launch blloon 23, Fab
20060126 0710 38 05.81 -64 54.78 1 41 % lt start ctd 41, after repair to ctd
20060126 0829 38 07.53 -64 52.85 0 0 % lt end ctd 41
20060126 1050 38 14.32 -65 03.06 1 42 % lt start ctd 42
20060126 1208 38 14.49 -65 02.89 0 0 % lt end ctd 42
20060126 1408 38 22.90 -65 11.30 1 43 % tj start ctd 43
20060126 1455 38 22.85 -65 11.43 2 24 % jt launch balloon 24, 2nd try successful
20060126 1605 38 22.87 -65 11.67 0 0 % tj end ctd 43, near mooring F, weller's
20060126 2200 38 20.00 -65 00.00 0 0 % ms WHOI NCTD onto rosette for testing
20060126 2200 38 12.34 -63 48.00 2 25 % je launch balloon 25 - failed - failed- snow,hail,sleet
20060127 0036 38 13.29 -63 47.43 1 44 % sl start ctd 44
20060127 0119 38 13.27 -63 47.59 2 26 % je launch balloon 26 - failed- snow,hail,sleet
20060127 0216 38 14.5 -63 47.26 0 0 % sl end ctd 44
20060127 0910 37 50.53 -62 25.29 1 45 % lt start ctd 45
20060127 1037 37 51.28 -62 27.48 0 0 % lt end ctd 45
20060127 1039 37 51.35 -62 27.50 3 10 % df deploy bobber #10
20060127 1045 37 51.35 -62 27.50 2 27 % je launch balloon 27 - wicked
20060127 1245 38 00.74 -62 27.33 1 46 % lt start ctd 46
20060127 1429 38 00.73 -62 28.53 0 0 % tj end ctd 46
20060127 1436 38 00.27 -62 28.62 3 11 % df deploy bobber 11, fun, ice falling from sky…
20060127 1659 38 11.13 -62 29.32 1 47 % tj start ctd 47
20060127 1832 38 11.33 -62 31.32 0 0 % tj end ctd 47
20060127 1915 38 11.40 -62 32.00 2 28 % je launch balloon 28, from fantail, 40kts
20060127 2213 38 21.975 -62 31.918 3 12 % df deploy bobber 12, ctd 48 delayed
20060128 0558 38 31.83 -62 33.39 1 48 % lt start ctd 48
20060128 0721 38 32.25 -62 33.80 0 0 % lt end ctd 48
20060128 0806 38 33.43 -62 33.72 2 29 % cm launch balloon 29, improving conditions
20060128 1006 38 42.16 -62 35.63 1 49 % lt start ctd 49
20060128 1155 38 42.50 -62 35.44 0 0 % lt end ctd 49
20060128 1400 38 52.48 -62 37.52 1 50 % tj start ctd 50
20060128 1521 38 53.21 -62 35.41 0 0 % tj end ctd 50
20060128 1540 38 53.63 -62 34.64 2 30 % je launch balloon 30, looks good
20060128 2125 38 15.80 -63 01.6 4 8 % rl deploy drifter #8, 55116
20060128 2125 38 15.80 -63 01.6 4 9 % rl deploy drifter #9, 54423
20060128 2205 38 16.0 -63 01.0 1 51 % sl start ctd 51
20060128 2321 38 15.71 -63 02.1 0 0 % sl end ctd 51
20060129 0358 38 27.2 -63 23.1 1 52 % sl start ctd 52
20060129 0518 38 27.3 -63 22.9 0 0 % sl end ctd 52
20060129 1200 38 15.3 -63 2.0 5 2 % jt begin FILIS recovery
20060129 1345 38 15.11 -63 02.55 0 0 % jd ASIS on board
20060129 1357 38 15.07 -63 02.69 3 13 % jl deploy bobber #13, sn 38603
20060130 0157 38 20.34 -64 42.78 0 0 % jd pass by Mooring F, weller's
20060131 1700 41 31.56 -70 40.38 0 0 % jd secured in woods hole